ADDS METAR Data INFO
IDs: Format: Raw Decoded Include TAF

Data at: 0857 UTC 19 Jun 2018

KDPL 190835Z AUTO 25009KT 7SM CLR 24/22 A2996 RMK AO2
KDPL 190815Z AUTO 25007KT 10SM CLR 24/22 A2996 RMK AO2
KDPL 190755Z AUTO 24007KT 10SM CLR 24/22 A2996 RMK AO2
KDPL 190735Z AUTO 25007KT 10SM CLR 23/22 A2996 RMK AO2
KDPL 190710Z AUTO 24007KT 10SM CLR 23/22 A2996 RMK AO2
KDPL 190655Z AUTO 24009KT 10SM CLR 23/22 A2996 RMK AO2
KDPL 190635Z AUTO 24006KT 10SM CLR 23/22 A2997 RMK AO2
KDPL 190615Z AUTO 23004KT 10SM CLR 23/21 A2997 RMK AO2
KDPL 190555Z AUTO 23005KT 10SM CLR 23/21 A2997 RMK AO2
KDPL 190535Z AUTO 24005KT 10SM CLR 23/21 A2998 RMK AO2
KDPL 190515Z AUTO 24006KT 10SM CLR 23/21 A2998 RMK AO2
KDPL 190455Z AUTO 24007KT 200V260 10SM CLR 23/21 A2998 RMK AO2
KDPL 190435Z AUTO 23003KT 10SM CLR 23/21 A2999 RMK AO2
KDPL 190415Z AUTO 22003KT 10SM CLR 23/21 A2999 RMK AO2
KDPL 190355Z AUTO 23004KT 10SM CLR 24/21 A3000 RMK AO2
KDPL 190335Z AUTO 23004KT 10SM CLR 24/21 A2999 RMK AO2
KDPL 190315Z AUTO 22003KT 10SM CLR 24/21 A2999 RMK AO2
KDPL 190255Z AUTO 00000KT 10SM CLR 24/21 A3000 RMK AO2
KDPL 190235Z AUTO 23004KT 10SM CLR 25/21 A2999 RMK AO2
KDPL 190215Z AUTO 22005KT 10SM CLR 25/21 A2999 RMK AO2
KDPL 190155Z AUTO 24005KT 10SM CLR 25/21 A2999 RMK AO2
KDPL 190135Z AUTO 23003KT 10SM CLR 26/21 A2998 RMK AO2
KDPL 190115Z AUTO 24005KT 10SM CLR 26/21 A2998 RMK AO2
KDPL 190055Z AUTO 22003KT 10SM CLR 27/21 A2998 RMK AO2
KDPL 190035Z AUTO 24006KT 10SM CLR 28/22 A2998 RMK AO2
KDPL 190015Z AUTO 25006KT 10SM CLR 28/22 A2998 RMK AO2
KDPL 182355Z AUTO 25007KT 10SM CLR 29/22 A2999 RMK AO2
KDPL 182335Z AUTO 25008KT 10SM SCT060 SCT100 30/23 A2998 RMK AO2
KDPL 182315Z AUTO 23008KT 180V260 10SM BKN060 BKN070 BKN090 31/23 A2998 RMK AO2
KDPL 182255Z AUTO 24009KT 10SM BKN060 BKN070 31/22 A2998 RMK AO2
KDPL 182235Z AUTO 00000KT 7SM SCT060 33/25 A2997 RMK AO2
KDPL 182215Z AUTO 36006KT 7SM CLR 34/23 A2997 RMK AO2
KDPL 182155Z AUTO 34005KT 10SM CLR 34/21 A2997 RMK AO2
KDPL 182135Z AUTO 32006KT 10SM CLR 35/22 A2998 RMK AO2
KDPL 182115Z AUTO 30006KT 10SM CLR 34/22 A2998 RMK AO2
KDPL 182055Z AUTO 34006KT 10SM SCT055 35/22 A2998 RMK AO2
KDPL 182035Z AUTO 29007KT 10SM SCT055 35/21 A2998 RMK AO2
KDPL 182015Z AUTO 31007KT 10SM SCT055 SCT070 35/22 A2998 RMK AO2
KDPL 181955Z AUTO 26007KT 230V290 10SM SCT055 35/22 A2999 RMK AO2
KDPL 181935Z AUTO 34006G18KT 10SM CLR 35/21 A3000 RMK AO2
KDPL 181915Z AUTO 30008G16KT 10SM SCT050 35/22 A3001 RMK AO2
KDPL 181855Z AUTO 31005KT 10SM BKN050 34/22 A3003 RMK AO2
KDPL 181835Z AUTO 26006KT 10SM SCT047 BKN060 SCT070 35/23 A3003 RMK AO2
KDPL 181815Z AUTO 29006KT 10SM SCT070 SCT075 SCT085 34/24 A3005 RMK AO2
KDPL 181755Z AUTO 24004KT 10SM SCT046 34/25 A3005 RMK AO2
KDPL 181735Z AUTO 27007KT 10SM SCT046 SCT050 33/24 A3005 RMK AO2
KDPL 181715Z AUTO 28008KT 250V310 10SM SCT039 SCT055 33/23 A3005 RMK AO2
KDPL 181655Z AUTO 28004KT 10SM SCT039 33/24 A3006 RMK AO2
KDPL 181635Z AUTO 22006KT 10SM SCT037 33/24 A3006 RMK AO2
KDPL 181615Z AUTO 23004KT 10SM SCT034 32/24 A3007 RMK AO2
KDPL 181555Z AUTO 26006KT 10SM SCT032 32/24 A3007 RMK AO2
KDPL 181535Z AUTO 26008KT 220V290 10SM CLR 32/24 A3008 RMK AO2
KDPL 181515Z AUTO 25006KT 10SM CLR 31/24 A3008 RMK AO2
KDPL 181455Z AUTO 24003KT 10SM CLR 30/24 A3008 RMK AO2
KDPL 181435Z AUTO 26007KT 10SM CLR 30/24 A3008 RMK AO2
KDPL 181415Z AUTO 25007KT 10SM CLR 30/24 A3008 RMK AO2
KDPL 181355Z AUTO 23005KT 10SM SCT120 29/24 A3008 RMK AO2
KDPL 181335Z AUTO 24007KT 210V270 10SM BKN110 28/24 A3008 RMK AO2
KDPL 181315Z AUTO 26006KT 10SM SCT085 BKN110 27/23 A3009 RMK AO2
KDPL 181255Z AUTO 27007KT 190V280 10SM SCT120 27/23 A3009 RMK AO2
KDPL 181235Z AUTO 24007KT 10SM CLR 27/24 A3009 RMK AO2
KDPL 181215Z AUTO 25006KT 7SM CLR 26/23 A3009 RMK AO2
KDPL 181155Z AUTO 24007KT 10SM CLR 25/23 A3009 RMK AO2
KDPL 181135Z AUTO 26007KT 7SM CLR 25/23 A3009 RMK AO2
KDPL 181115Z AUTO 24005KT 7SM BR CLR 24/23 A3009 RMK AO2
KDPL 181055Z AUTO 22003KT 7SM BR CLR 24/23 A3009 RMK AO2
KDPL 181035Z AUTO 24004KT 7SM BR CLR 24/23 A3009 RMK AO2
KDPL 181015Z AUTO 23007KT 190V250 7SM BR CLR 24/23 A3009 RMK AO2
KDPL 180955Z AUTO 25007KT 7SM BR CLR 24/23 A3009 RMK AO2
KDPL 180935Z AUTO 23005KT 7SM BR CLR 24/23 A3008 RMK AO2
KDPL 180915Z AUTO 24004KT 7SM CLR 24/23 A3008 RMK AO2
KDPL 180855Z AUTO 23004KT 7SM CLR 24/23 A3008 RMK AO2
KDPL 180835Z AUTO 22004KT 10SM CLR 24/23 A3008 RMK AO2
KDPL 180815Z AUTO 21003KT 10SM CLR 24/23 A3008 RMK AO2
KDPL 180755Z AUTO 25006KT 10SM CLR 24/23 A3008 RMK AO2
KDPL 180735Z AUTO 24008KT 10SM CLR 24/23 A3008 RMK AO2
KDPL 180710Z AUTO 24008KT 10SM CLR 24/23 A3008 RMK AO2
KDPL 180655Z AUTO 22004KT 10SM CLR 24/23 A3008 RMK AO2
KDPL 180635Z AUTO 23006KT 10SM CLR 24/23 A3008 RMK AO2
KDPL 180615Z AUTO 23005KT 10SM CLR 24/23 A3008 RMK AO2
KDPL 180555Z AUTO 24005KT 10SM CLR 25/23 A3009 RMK AO2
KDPL 180535Z AUTO 24008KT 210V270 10SM CLR 25/23 A3009 RMK AO2
KDPL 180515Z AUTO 24006KT 10SM CLR 25/23 A3010 RMK AO2
KDPL 180435Z AUTO 22005KT 10SM CLR 25/23 A3010 RMK AO2
KDPL 180415Z AUTO 23003KT 10SM SCT110 25/23 A3011 RMK AO2
KDPL 180355Z AUTO 22004KT 10SM SCT060 BKN110 25/23 A3011 RMK AO2
KDPL 180315Z AUTO 23003KT 10SM CLR 25/23 A3010 RMK AO2
KDPL 180255Z AUTO 00000KT 10SM CLR 25/23 A3011 RMK AO2
KDPL 180235Z AUTO 21003KT 10SM CLR 26/23 A3011 RMK AO2
KDPL 180215Z AUTO 22003KT 10SM CLR 26/23 A3011 RMK AO2
KDPL 180155Z AUTO 22003KT 10SM CLR 26/23 A3010 RMK AO2
KDPL 180135Z AUTO 00000KT 10SM CLR 26/23 A3009 RMK AO2
KDPL 180115Z AUTO 00000KT 10SM CLR 27/24 A3007 RMK AO2
KDPL 180055Z AUTO 00000KT 7SM CLR 26/24 A3007 RMK AO2
KDPL 180035Z AUTO 00000KT 7SM BR CLR 26/25 A3007 RMK AO2
KDPL 180015Z AUTO 00000KT 7SM SCT046 SCT070 26/25 A3006 RMK AO2
KDPL 172355Z AUTO 30003KT 10SM SCT038 BKN048 BKN070 27/25 A3006 RMK AO2
KDPL 172335Z AUTO 00000KT 7SM -RA SCT035 SCT047 BKN090 28/24 A3007 RMK AO2
KDPL 172315Z AUTO 00000KT 10SM CLR 29/24 A3007 RMK AO2
KDPL 172255Z AUTO 15003KT 10SM CLR 29/24 A3007 RMK AO2
KDPL 172235Z AUTO 00000KT 10SM SCT050 29/24 A3006 RMK AO2
KDPL 172215Z AUTO 00000KT 10SM CLR 29/24 A3006 RMK AO2
KDPL 172155Z AUTO 00000KT 10SM CLR 30/24 A3008 RMK AO2
KDPL 172135Z AUTO 00000KT 10SM SCT050 SCT110 30/24 A3007 RMK AO2
KDPL 172115Z AUTO 00000KT 10SM SCT044 SCT050 SCT110 31/24 A3007 RMK AO2